Time,TemperatureF,DewpointF,PressureIn,WindDirection,WindDirectionDegrees,WindSpeedMPH,WindSpeedGustMPH,Humidity,HourlyPrecipIn,Conditions,Clouds,dailyrainin,SoftwareType,DateUTC
2013-07-28 00:02:00,55.0,48.0,30.03,NW,307,0.0,0.0,77,0.00,,,0.00,,2013-07-28 05:02:00,
2013-07-28 00:12:00,55.0,48.0,30.03,NW,308,0.0,0.0,77,0.00,,,0.00,,2013-07-28 05:12:00,
2013-07-28 00:22:00,55.0,48.0,30.03,NW,307,0.0,0.0,77,0.00,,,0.00,,2013-07-28 05:22:00,
2013-07-28 00:32:00,55.0,48.0,30.03,NW,307,0.0,0.0,76,0.00,,,0.00,,2013-07-28 05:32:00,
2013-07-28 00:43:00,55.0,48.0,30.02,NW,307,0.0,0.0,78,0.00,,,0.00,,2013-07-28 05:43:00,
2013-07-28 00:52:00,54.0,48.0,30.02,NW,308,0.0,0.0,79,0.00,,,0.00,,2013-07-28 05:52:00,
2013-07-28 01:02:00,54.0,48.0,30.02,NW,308,0.0,0.0,80,0.00,,,0.00,,2013-07-28 06:02:00,
2013-07-28 01:12:00,53.0,47.0,30.02,NW,308,0.0,0.0,81,0.00,,,0.00,,2013-07-28 06:12:00,
2013-07-28 01:22:00,53.0,48.0,30.02,NW,308,0.0,0.0,82,0.00,,,0.00,,2013-07-28 06:22:00,
2013-07-28 01:32:00,53.0,48.0,30.02,NW,308,0.0,0.0,83,0.00,,,0.00,,2013-07-28 06:32:00,
2013-07-28 01:43:00,53.0,48.0,30.03,NW,307,0.0,0.0,83,0.00,,,0.00,,2013-07-28 06:43:00,
2013-07-28 01:52:00,53.0,48.0,30.03,NW,308,0.0,0.0,83,0.00,,,0.00,,2013-07-28 06:52:00,
2013-07-28 02:02:00,52.0,47.0,30.04,NW,308,0.0,0.0,84,0.00,,,0.00,,2013-07-28 07:02:00,
2013-07-28 02:12:00,52.0,47.0,30.04,NW,308,0.0,0.0,84,0.00,,,0.00,,2013-07-28 07:12:00,
2013-07-28 02:22:00,52.0,48.0,30.03,NW,308,0.0,0.0,85,0.00,,,0.00,,2013-07-28 07:22:00,
2013-07-28 02:32:00,52.0,48.0,30.04,NW,307,0.0,0.0,85,0.00,,,0.00,,2013-07-28 07:32:00,
2013-07-28 02:43:00,52.0,48.0,30.04,NW,308,0.0,0.0,85,0.00,,,0.00,,2013-07-28 07:43:00,
2013-07-28 02:53:00,52.0,48.0,30.04,NW,308,0.0,0.0,86,0.00,,,0.00,,2013-07-28 07:53:00,
2013-07-28 03:02:00,52.0,48.0,30.04,NW,307,0.0,0.0,86,0.00,,,0.00,,2013-07-28 08:02:00,
2013-07-28 03:12:00,52.0,48.0,30.04,NW,308,0.0,0.0,85,0.00,,,0.00,,2013-07-28 08:12:00,
2013-07-28 03:22:00,52.0,47.0,30.03,NW,307,0.0,0.0,84,0.00,,,0.00,,2013-07-28 08:22:00,
2013-07-28 03:33:00,52.0,47.0,30.03,NW,307,0.0,0.0,83,0.00,,,0.00,,2013-07-28 08:33:00,
2013-07-28 03:42:00,53.0,48.0,30.03,NW,308,0.0,0.0,83,0.00,,,0.00,,2013-07-28 08:42:00,
2013-07-28 03:53:00,53.0,48.0,30.02,NW,308,0.0,0.0,82,0.00,,,0.00,,2013-07-28 08:53:00,
2013-07-28 04:02:00,53.0,48.0,30.02,NW,307,0.0,0.0,82,0.00,,,0.00,,2013-07-28 09:02:00,
2013-07-28 04:12:00,53.0,48.0,30.03,NW,308,0.0,0.0,82,0.00,,,0.00,,2013-07-28 09:12:00,
2013-07-28 04:22:00,53.0,48.0,30.03,NW,308,2.0,2.0,83,0.00,,,0.00,,2013-07-28 09:22:00,
2013-07-28 04:32:00,53.0,48.0,30.03,NW,308,0.0,4.0,83,0.00,,,0.00,,2013-07-28 09:32:00,
2013-07-28 04:43:00,52.0,47.0,30.03,NW,307,0.0,0.0,84,0.00,,,0.00,,2013-07-28 09:43:00,
2013-07-28 04:53:00,52.0,47.0,30.03,NW,307,0.0,0.0,84,0.00,,,0.00,,2013-07-28 09:53:00,
2013-07-28 05:02:00,52.0,48.0,30.03,NW,308,0.0,0.0,85,0.00,,,0.00,,2013-07-28 10:02:00,
2013-07-28 05:12:00,52.0,48.0,30.03,NW,308,0.0,0.0,85,0.00,,,0.00,,2013-07-28 10:12:00,
2013-07-28 05:22:00,51.0,47.0,30.04,NW,307,0.0,0.0,87,0.00,,,0.00,,2013-07-28 10:22:00,
2013-07-28 05:33:00,51.0,47.0,30.04,NW,308,0.0,0.0,87,0.00,,,0.00,,2013-07-28 10:33:00,
2013-07-28 05:42:00,51.0,47.0,30.04,NW,308,0.0,0.0,87,0.00,,,0.00,,2013-07-28 10:42:00,
2013-07-28 05:53:00,51.0,47.0,30.04,NW,307,0.0,0.0,87,0.00,,,0.00,,2013-07-28 10:53:00,
2013-07-28 06:12:00,50.0,47.0,30.04,NW,307,0.0,0.0,88,0.00,,,0.00,,2013-07-28 11:12:00,
2013-07-28 06:22:00,50.0,47.0,30.05,NW,308,0.0,0.0,88,0.00,,,0.00,,2013-07-28 11:22:00,
2013-07-28 06:33:00,50.0,47.0,30.05,NW,307,0.0,0.0,89,0.00,,,0.00,,2013-07-28 11:33:00,
2013-07-28 06:43:00,50.0,47.0,30.05,NW,307,0.0,0.0,89,0.00,,,0.00,,2013-07-28 11:43:00,
2013-07-28 06:53:00,50.0,47.0,30.05,NW,308,0.0,0.0,89,0.00,,,0.00,,2013-07-28 11:53:00,
2013-07-28 07:02:00,50.0,47.0,30.05,NW,307,0.0,0.0,90,0.00,,,0.00,,2013-07-28 12:02:00,
2013-07-28 07:12:00,50.0,47.0,30.05,NW,307,0.0,0.0,90,0.00,,,0.00,,2013-07-28 12:12:00,
2013-07-28 07:22:00,51.0,48.0,30.05,NW,307,0.0,0.0,90,0.00,,,0.00,,2013-07-28 12:22:00,
2013-07-28 07:33:00,52.0,49.0,30.05,NW,308,0.0,1.0,89,0.00,,,0.00,,2013-07-28 12:33:00,
2013-07-28 07:43:00,52.0,49.0,30.05,NW,307,0.0,0.0,88,0.00,,,0.00,,2013-07-28 12:43:00,
2013-07-28 07:53:00,53.0,50.0,30.05,NW,307,0.0,0.0,88,0.00,,,0.00,,2013-07-28 12:53:00,
2013-07-28 08:02:00,53.0,49.0,30.05,NW,308,0.0,0.0,87,0.00,,,0.00,,2013-07-28 13:02:00,
2013-07-28 08:12:00,54.0,50.0,30.06,NW,308,0.0,0.0,86,0.00,,,0.00,,2013-07-28 13:12:00,
2013-07-28 08:22:00,55.0,51.0,30.06,NW,307,0.0,0.0,85,0.00,,,0.00,,2013-07-28 13:22:00,
2013-07-28 08:32:00,55.0,50.0,30.06,NW,308,0.0,0.0,84,0.00,,,0.00,,2013-07-28 13:32:00,
2013-07-28 08:43:00,56.0,51.0,30.06,NW,307,0.0,0.0,83,0.00,,,0.00,,2013-07-28 13:43:00,
2013-07-28 08:52:00,57.0,51.0,30.06,NW,308,0.0,0.0,80,0.00,,,0.00,,2013-07-28 13:52:00,
2013-07-28 09:02:00,59.0,52.0,30.06,NW,308,0.0,0.0,79,0.00,,,0.00,,2013-07-28 14:02:00,
2013-07-28 09:12:00,60.0,53.0,30.06,NW,308,0.0,0.0,77,0.00,,,0.00,,2013-07-28 14:12:00,
2013-07-28 09:23:00,61.0,53.0,30.07,NW,308,0.0,0.0,75,0.00,,,0.00,,2013-07-28 14:23:00,
2013-07-28 09:33:00,62.0,53.0,30.07,NW,307,0.0,0.0,73,0.00,,,0.00,,2013-07-28 14:33:00,
2013-07-28 09:43:00,63.0,51.0,30.07,NW,307,0.0,0.0,66,0.00,,,0.00,,2013-07-28 14:43:00,
2013-07-28 09:53:00,64.0,48.0,30.06,NW,308,0.0,2.0,57,0.00,,,0.00,,2013-07-28 14:53:00,
2013-07-28 10:03:00,66.0,47.0,30.06,NW,308,2.0,5.0,51,0.00,,,0.00,,2013-07-28 15:03:00,
2013-07-28 10:13:00,66.0,46.0,30.06,NW,308,3.0,4.0,48,0.00,,,0.00,,2013-07-28 15:13:00,
2013-07-28 10:22:00,67.0,47.0,30.06,NW,307,1.0,4.0,48,0.00,,,0.00,,2013-07-28 15:22:00,
2013-07-28 10:32:00,68.0,47.0,30.06,NW,308,0.0,2.0,47,0.00,,,0.00,,2013-07-28 15:32:00,
2013-07-28 10:43:00,68.0,45.0,30.06,NW,308,2.0,5.0,44,0.00,,,0.00,,2013-07-28 15:43:00,
2013-07-28 10:53:00,68.0,46.0,30.05,NW,308,1.0,2.0,45,0.00,,,0.00,,2013-07-28 15:53:00,
2013-07-28 11:02:00,69.0,45.0,30.05,NW,307,2.0,6.0,42,0.00,,,0.00,,2013-07-28 16:02:00,
2013-07-28 11:12:00,69.0,47.0,30.05,NW,307,1.0,5.0,46,0.00,,,0.00,,2013-07-28 16:12:00,
2013-07-28 11:22:00,69.0,46.0,30.06,NW,308,2.0,6.0,44,0.00,,,0.00,,2013-07-28 16:22:00,
2013-07-28 11:33:00,70.0,46.0,30.05,NW,326,2.0,6.0,43,0.00,,,0.00,,2013-07-28 16:33:00,
2013-07-28 11:43:00,71.0,46.0,30.05,NNW,331,0.0,4.0,41,0.00,,,0.00,,2013-07-28 16:43:00,
2013-07-28 11:52:00,72.0,46.0,30.04,NNW,348,5.0,7.0,40,0.00,,,0.00,,2013-07-28 16:52:00,
2013-07-28 12:02:00,71.0,47.0,30.05,North,4,2.0,6.0,42,0.00,,,0.00,,2013-07-28 17:02:00,
2013-07-28 12:12:00,71.0,46.0,30.05,WNW,289,4.0,10.0,41,0.00,,,0.00,,2013-07-28 17:12:00,
2013-07-28 12:23:00,72.0,48.0,30.04,WNW,292,2.0,6.0,43,0.00,,,0.00,,2013-07-28 17:23:00,
2013-07-28 12:32:00,72.0,46.0,30.04,NNW,348,2.0,7.0,39,0.00,,,0.00,,2013-07-28 17:32:00,
2013-07-28 12:43:00,72.0,47.0,30.05,WNW,292,4.0,7.0,41,0.00,,,0.00,,2013-07-28 17:43:00,
2013-07-28 12:53:00,72.0,47.0,30.04,NNW,348,4.0,7.0,41,0.00,,,0.00,,2013-07-28 17:53:00,
2013-07-28 13:03:00,72.0,46.0,30.04,WNW,292,0.0,9.0,40,0.00,,,0.00,,2013-07-28 18:03:00,
2013-07-28 13:12:00,72.0,46.0,30.04,WNW,288,3.0,9.0,40,0.00,,,0.00,,2013-07-28 18:12:00,
2013-07-28 13:22:00,73.0,47.0,30.04,North,355,1.0,5.0,39,0.00,,,0.00,,2013-07-28 18:22:00,
2013-07-28 13:33:00,73.0,47.0,30.04,WNW,297,4.0,7.0,39,0.00,,,0.00,,2013-07-28 18:33:00,
2013-07-28 13:43:00,74.0,45.0,30.03,NE,36,2.0,6.0,36,0.00,,,0.00,,2013-07-28 18:43:00,
2013-07-28 13:52:00,75.0,48.0,30.03,North,352,3.0,6.0,39,0.00,,,0.00,,2013-07-28 18:52:00,
2013-07-28 14:02:00,74.0,47.0,30.03,West,279,2.0,6.0,38,0.00,,,0.00,,2013-07-28 19:02:00,
2013-07-28 14:12:00,74.0,47.0,30.03,West,277,3.0,7.0,39,0.00,,,0.00,,2013-07-28 19:12:00,
2013-07-28 14:22:00,74.0,47.0,30.02,NW,309,2.0,7.0,39,0.00,,,0.00,,2013-07-28 19:22:00,
2013-07-28 14:33:00,75.0,47.0,30.02,NNW,343,2.0,6.0,37,0.00,,,0.00,,2013-07-28 19:33:00,
2013-07-28 14:52:00,76.0,46.0,30.02,NW,315,2.0,6.0,35,0.00,,,0.00,,2013-07-28 19:52:00,
2013-07-28 15:02:00,76.0,45.0,30.02,NW,321,2.0,7.0,33,0.00,,,0.00,,2013-07-28 20:02:00,
2013-07-28 15:12:00,77.0,46.0,30.02,NE,54,2.0,5.0,34,0.00,,,0.00,,2013-07-28 20:12:00,
2013-07-28 15:23:00,78.0,47.0,30.02,NE,56,2.0,4.0,34,0.00,,,0.00,,2013-07-28 20:23:00,
2013-07-28 15:33:00,76.0,48.0,30.02,WNW,303,4.0,8.0,37,0.00,,,0.00,,2013-07-28 20:33:00,
2013-07-28 15:43:00,76.0,47.0,30.02,WNW,297,3.0,6.0,36,0.00,,,0.00,,2013-07-28 20:43:00,
2013-07-28 15:52:00,76.0,47.0,30.02,NW,305,0.0,1.0,36,0.00,,,0.00,,2013-07-28 20:52:00,
2013-07-28 16:03:00,77.0,47.0,30.02,WNW,291,5.0,7.0,35,0.00,,,0.00,,2013-07-28 21:03:00,
2013-07-28 16:13:00,76.0,49.0,30.02,WSW,238,2.0,5.0,38,0.00,,,0.00,,2013-07-28 21:13:00,
2013-07-28 16:22:00,75.0,48.0,30.02,WNW,299,1.0,6.0,38,0.00,,,0.00,,2013-07-28 21:22:00,
2013-07-28 16:33:00,76.0,47.0,30.02,WNW,299,1.0,5.0,36,0.00,,,0.00,,2013-07-28 21:33:00,
2013-07-28 16:44:00,76.0,46.0,30.01,WNW,293,2.0,4.0,35,0.00,,,0.00,,2013-07-28 21:44:00,
2013-07-28 16:52:00,77.0,47.0,30.01,WNW,293,1.0,2.0,35,0.00,,,0.00,,2013-07-28 21:52:00,
2013-07-28 17:02:00,76.0,47.0,30.02,WNW,293,0.0,5.0,36,0.00,,,0.00,,2013-07-28 22:02:00,
2013-07-28 17:12:00,77.0,47.0,30.01,WNW,292,2.0,5.0,35,0.00,,,0.00,,2013-07-28 22:12:00,
2013-07-28 17:22:00,77.0,47.0,30.02,WNW,294,2.0,4.0,35,0.00,,,0.00,,2013-07-28 22:22:00,
2013-07-28 17:32:00,77.0,48.0,30.01,WNW,294,2.0,4.0,36,0.00,,,0.00,,2013-07-28 22:32:00,
2013-07-28 17:43:00,76.0,47.0,30.01,WNW,303,2.0,5.0,36,0.00,,,0.00,,2013-07-28 22:43:00,
2013-07-28 17:52:00,77.0,47.0,30.01,SW,218,1.0,5.0,35,0.00,,,0.00,,2013-07-28 22:52:00,
2013-07-28 18:03:00,76.0,47.0,30.01,WNW,294,2.0,6.0,36,0.00,,,0.00,,2013-07-28 23:03:00,
2013-07-28 18:12:00,76.0,48.0,30.01,West,272,2.0,5.0,37,0.00,,,0.00,,2013-07-28 23:12:00,
2013-07-28 18:22:00,76.0,48.0,30.01,West,272,2.0,4.0,37,0.00,,,0.00,,2013-07-28 23:22:00,
2013-07-28 18:32:00,76.0,49.0,30.01,West,272,2.0,5.0,38,0.00,,,0.00,,2013-07-28 23:32:00,
2013-07-28 18:43:00,76.0,50.0,30.01,West,272,2.0,4.0,40,0.00,,,0.00,,2013-07-28 23:43:00,
2013-07-28 18:53:00,76.0,49.0,30.01,WNW,302,3.0,5.0,38,0.00,,,0.00,,2013-07-28 23:53:00,
2013-07-28 19:03:00,76.0,47.0,30.01,WNW,300,4.0,6.0,36,0.00,,,0.00,,2013-07-29 00:03:00,
2013-07-28 19:22:00,75.0,48.0,30.01,WNW,296,0.0,2.0,39,0.00,,,0.00,,2013-07-29 00:22:00,
2013-07-28 19:32:00,75.0,49.0,30.01,WNW,296,1.0,3.0,40,0.00,,,0.00,,2013-07-29 00:32:00,
2013-07-28 19:43:00,75.0,50.0,30.01,WNW,296,2.0,4.0,41,0.00,,,0.00,,2013-07-29 00:43:00,
2013-07-28 19:52:00,75.0,50.0,30.01,WNW,296,2.0,5.0,42,0.00,,,0.00,,2013-07-29 00:52:00,
2013-07-28 20:02:00,74.0,51.0,30.01,WNW,296,0.0,3.0,44,0.00,,,0.00,,2013-07-29 01:02:00,
2013-07-28 20:13:00,75.0,52.0,30.01,WNW,296,0.0,1.0,45,0.00,,,0.00,,2013-07-29 01:13:00,
2013-07-28 20:35:00,76.0,53.0,30.01,WNW,296,0.0,0.0,45,0.00,,,0.00,,2013-07-29 01:35:00,
2013-07-28 20:57:00,73.0,53.0,30.00,WNW,296,0.0,0.0,50,0.00,,,0.00,,2013-07-29 01:57:00,
2013-07-28 21:05:00,72.0,55.0,30.01,WNW,296,0.0,0.0,55,0.00,,,0.00,,2013-07-29 02:05:00,
2013-07-28 21:14:00,70.0,54.0,30.01,WNW,296,0.0,0.0,56,0.00,,,0.00,,2013-07-29 02:14:00,
2013-07-28 21:25:00,68.0,53.0,30.01,WNW,296,0.0,0.0,59,0.00,,,0.00,,2013-07-29 02:25:00,
2013-07-28 21:36:00,67.0,54.0,30.02,WNW,296,0.0,0.0,62,0.00,,,0.00,,2013-07-29 02:36:00,
2013-07-28 21:56:00,65.0,53.0,30.02,WNW,296,0.0,0.0,65,0.00,,,0.00,,2013-07-29 02:56:00,
2013-07-28 22:03:00,65.0,52.0,30.03,WNW,296,0.0,0.0,63,0.00,,,0.00,,2013-07-29 03:03:00,
2013-07-28 22:24:00,65.0,53.0,30.03,WNW,294,0.0,5.0,64,0.00,,,0.00,,2013-07-29 03:24:00,
2013-07-28 22:36:00,64.0,52.0,30.04,WNW,294,0.0,0.0,66,0.00,,,0.00,,2013-07-29 03:36:00,
2013-07-28 22:48:00,64.0,53.0,30.04,WNW,294,0.0,0.0,67,0.00,,,0.00,,2013-07-29 03:48:00,
2013-07-28 23:02:00,63.0,54.0,30.04,WNW,294,0.0,0.0,72,0.00,,,0.00,,2013-07-29 04:02:00,
2013-07-28 23:12:00,63.0,54.0,30.04,WNW,294,0.0,0.0,72,0.00,,,0.00,,2013-07-29 04:12:00,
2013-07-28 23:22:00,63.0,55.0,30.04,WNW,294,0.0,0.0,74,0.00,,,0.00,,2013-07-29 04:22:00,
2013-07-28 23:32:00,63.0,54.0,30.04,WNW,294,0.0,0.0,73,0.00,,,0.00,,2013-07-29 04:32:00,
2013-07-28 23:43:00,63.0,54.0,30.04,WNW,294,0.0,0.0,72,0.00,,,0.00,,2013-07-29 04:43:00,
2013-07-28 23:53:00,64.0,56.0,30.04,WNW,294,0.0,0.0,75,0.00,,,0.00,,2013-07-29 04:53:00,